Time;durP1;ratioP1;P1;durP2;ratioP2;P2;SDS_P1;SDS_P2;PMS_P1;PMS_P2;Temp;Humidity;BMP_temperature;BMP_pressure;BME280_temperature;BME280_humidity;BME280_pressure;Samples;Min_cycle;Max_cycle;Signal;HPM_P1;HPM_P2
2024/02/17 00:04:43;;;;;;;6.88;6.28;;;;;;;13.66;100.00;100810.22;10199240;28;20059;-61
2024/02/17 00:09:44;;;;;;;6.68;6.05;;;;;;;13.70;100.00;100817.00;10202926;28;20059;-62
2024/02/17 00:14:48;;;;;;;5.63;5.13;;;;;;;13.59;97.61;100827.78;10206827;28;20692;-62
2024/02/17 00:19:49;;;;;;;5.93;5.32;;;;;;;13.56;98.07;100830.72;10209485;28;20058;-62
2024/02/17 00:24:51;;;;;;;6.68;6.07;;;;;;;13.62;96.17;100835.53;10203957;28;20524;-61
2024/02/17 00:29:52;;;;;;;6.88;6.18;;;;;;;13.57;97.34;100851.97;10205106;28;20158;-63
2024/02/17 00:34:53;;;;;;;8.07;7.28;;;;;;;13.54;96.78;100859.38;10209022;28;20074;-61
2024/02/17 00:39:57;;;;;;;7.55;6.85;;;;;;;13.51;95.86;100865.00;10200674;28;20047;-62
2024/02/17 00:44:58;;;;;;;7.20;6.50;;;;;;;13.41;93.72;100876.47;10202027;28;20055;-63
2024/02/17 00:50:00;;;;;;;7.05;6.45;;;;;;;13.44;95.60;100886.06;10203526;28;20059;-62
2024/02/17 00:55:03;;;;;;;6.55;5.95;;;;;;;13.19;95.03;100860.44;10204707;28;20792;-63
2024/02/17 01:00:05;;;;;;;6.97;6.38;;;;;;;13.18;94.75;100890.81;10204523;28;20043;-63
2024/02/17 01:05:07;;;;;;;7.07;5.95;;;;;;;12.98;94.25;100860.38;10198291;28;20533;-61
2024/02/17 01:10:08;;;;;;;8.00;7.20;;;;;;;13.12;93.60;100897.53;10216587;28;20070;-62
2024/02/17 01:15:10;;;;;;;7.70;6.03;;;;;;;13.12;94.45;100910.03;10196458;28;20073;-63
2024/02/17 01:20:12;;;;;;;7.13;6.43;;;;;;;13.05;95.51;100902.50;10199784;28;20058;-63
2024/02/17 01:25:13;;;;;;;7.40;6.70;;;;;;;13.03;95.76;100915.16;10198234;28;20127;-62
2024/02/17 01:30:15;;;;;;;7.45;6.75;;;;;;;12.79;95.12;100890.41;10202794;28;20073;-63
2024/02/17 01:35:17;;;;;;;6.63;6.03;;;;;;;12.96;95.20;100921.97;10204355;28;20054;-62
2024/02/17 01:40:18;;;;;;;6.97;6.32;;;;;;;12.88;95.39;100911.91;10186131;28;20724;-63
2024/02/17 01:45:20;;;;;;;7.30;6.63;;;;;;;12.88;94.45;100932.41;10182991;28;20439;-62
2024/02/17 01:50:22;;;;;;;7.60;6.88;;;;;;;12.81;93.31;100955.25;10196245;28;20061;-62
2024/02/17 01:55:24;;;;;;;7.35;6.65;;;;;;;12.71;94.44;100950.63;10207445;28;20055;-62
2024/02/17 02:00:26;;;;;;;7.10;6.45;;;;;;;12.69;94.86;100960.56;10197474;28;20062;-62
2024/02/17 02:05:28;;;;;;;7.97;7.18;;;;;;;12.59;94.19;100970.28;10207167;28;20047;-62
2024/02/17 02:10:30;;;;;;;6.85;6.15;;;;;;;12.34;95.64;100940.16;10205619;28;20089;-61
2024/02/17 02:15:31;;;;;;;7.63;6.72;;;;;;;12.53;95.66;100968.91;10207955;28;20639;-61
2024/02/17 02:20:46;;;;;;;7.25;6.55;;;;;;;12.53;96.83;100982.28;10203448;28;20664;-63
2024/02/17 02:25:55;;;;;;;7.50;6.80;;;;;;;12.43;96.44;100981.31;10184067;28;20043;-61
2024/02/17 02:30:57;;;;;;;8.15;7.38;;;;;;;12.37;96.75;100971.94;10201542;28;20141;-62
2024/02/17 02:35:59;;;;;;;8.27;7.28;;;;;;;12.43;97.58;100983.09;10199093;28;20754;-64
2024/02/17 02:41:01;;;;;;;7.85;7.07;;;;;;;12.38;97.31;100995.00;10201764;28;20062;-62
2024/02/17 02:46:02;;;;;;;9.25;8.32;;;;;;;12.36;97.34;100990.75;10197157;28;20055;-62
2024/02/17 02:51:04;;;;;;;8.50;7.60;;;;;;;12.32;96.88;101006.13;10202613;28;20107;-61
2024/02/17 02:56:05;;;;;;;8.60;7.80;;;;;;;12.32;98.67;101003.47;10189984;28;20122;-62
2024/02/17 03:01:07;;;;;;;9.63;8.63;;;;;;;12.29;98.38;101006.38;10191585;28;20133;-61
2024/02/17 03:06:09;;;;;;;9.82;8.82;;;;;;;12.31;98.27;101016.94;10199985;28;20548;-60
2024/02/17 03:11:15;;;;;;;8.93;8.02;;;;;;;12.33;98.50;101018.53;10202813;28;20505;-64
2024/02/17 03:16:24;;;;;;;9.45;8.15;;;;;;;12.35;98.35;101024.59;10197642;28;20051;-61
2024/02/17 03:21:26;;;;;;;9.27;8.23;;;;;;;12.30;98.83;101024.09;10198620;28;20733;-62
2024/02/17 03:26:27;;;;;;;10.68;8.80;;;;;;;12.41;99.27;101041.97;10199219;28;20071;-62
2024/02/17 03:31:29;;;;;;;9.55;8.65;;;;;;;12.39;98.73;101051.91;10192537;28;20153;-61
2024/02/17 03:36:34;;;;;;;10.90;9.30;;;;;;;12.32;99.02;101051.50;10200772;28;20058;-63
2024/02/17 03:41:36;;;;;;;9.95;8.68;;;;;;;12.36;100.00;101060.16;10201843;28;20168;-62
2024/02/17 03:46:37;;;;;;;10.95;9.68;;;;;;;12.37;99.19;101068.06;10201219;28;20058;-62
2024/02/17 03:51:39;;;;;;;11.48;10.38;;;;;;;12.37;99.05;101073.41;10198107;28;20669;-60
2024/02/17 03:56:40;;;;;;;11.85;10.65;;;;;;;12.43;99.48;101065.88;10196901;28;20156;-62
2024/02/17 04:01:42;;;;;;;11.95;10.65;;;;;;;12.36;98.53;101068.19;10204890;28;20070;-61
2024/02/17 04:06:44;;;;;;;12.13;10.45;;;;;;;12.40;99.09;101099.03;10184815;28;20709;-62
2024/02/17 04:11:46;;;;;;;12.93;10.35;;;;;;;12.37;98.73;101084.06;10204387;28;20217;-64
2024/02/17 04:16:47;;;;;;;13.80;12.32;;;;;;;12.40;100.00;101107.03;10200266;28;20106;-61
2024/02/17 04:21:49;;;;;;;13.82;12.38;;;;;;;12.36;100.00;101108.22;10194938;28;20785;-61
2024/02/17 04:26:50;;;;;;;14.88;12.75;;;;;;;12.47;100.00;101131.44;10207168;28;20051;-61
2024/02/17 04:31:51;;;;;;;14.07;12.60;;;;;;;12.49;100.00;101129.50;10192274;28;20066;-62
2024/02/17 04:36:53;;;;;;;14.30;11.63;;;;;;;12.47;100.00;101140.28;10219950;28;20943;-62
2024/02/17 04:41:54;;;;;;;14.15;12.73;;;;;;;12.46;100.00;101151.09;10190872;28;20070;-61
2024/02/17 04:46:56;;;;;;;14.07;12.30;;;;;;;12.46;100.00;101151.09;10201956;28;20499;-62
2024/02/17 04:51:59;;;;;;;14.85;12.13;;;;;;;12.38;99.60;101147.19;10201790;28;20599;-60
2024/02/17 04:57:01;;;;;;;13.25;11.85;;;;;;;12.47;100.00;101158.16;10200303;28;20093;-62
2024/02/17 05:02:05;;;;;;;13.90;12.52;;;;;;;12.40;99.85;101168.44;10199423;28;20071;-61
2024/02/17 05:07:07;;;;;;;15.77;13.73;;;;;;;12.41;99.30;101180.81;10195016;28;20077;-62
2024/02/17 05:12:09;;;;;;;14.13;12.68;;;;;;;12.37;99.62;101201.56;10198501;28;20055;-61
2024/02/17 05:17:11;;;;;;;13.65;11.40;;;;;;;12.34;99.14;101206.25;10194034;28;20732;-62
2024/02/17 05:22:13;;;;;;;13.75;12.40;;;;;;;12.31;99.38;101212.69;10203895;28;20130;-62
2024/02/17 05:27:14;;;;;;;14.23;11.40;;;;;;;12.25;98.07;101217.59;10200666;28;20553;-62
2024/02/17 05:32:16;;;;;;;13.90;12.50;;;;;;;12.15;98.95;101209.41;10185085;28;20079;-61
2024/02/17 05:37:18;;;;;;;12.07;10.85;;;;;;;12.17;98.14;101211.03;10200534;28;20070;-62
2024/02/17 05:42:19;;;;;;;12.43;11.23;;;;;;;12.11;97.41;101215.94;10199052;28;20534;-62
2024/02/17 05:47:21;;;;;;;12.30;11.10;;;;;;;12.01;97.03;101221.94;10200928;28;20074;-63
2024/02/17 05:52:22;;;;;;;13.40;11.15;;;;;;;12.02;96.68;101238.78;10205217;28;20464;-62
2024/02/17 05:57:24;;;;;;;11.82;10.63;;;;;;;11.66;95.10;101201.25;10171608;28;20070;-64
2024/02/17 06:02:26;;;;;;;11.95;10.75;;;;;;;11.85;95.94;101248.78;10187664;28;20115;-62
2024/02/17 06:07:28;;;;;;;12.07;10.30;;;;;;;11.82;95.49;101259.69;10198369;28;20083;-63
2024/02/17 06:12:30;;;;;;;10.90;9.80;;;;;;;11.81;96.06;101267.78;10194816;28;20606;-62
2024/02/17 06:17:33;;;;;;;12.00;10.77;;;;;;;11.78;96.62;101262.66;10192696;28;20106;-62
2024/02/17 06:22:34;;;;;;;10.07;9.15;;;;;;;11.79;97.31;101264.38;10200010;28;20066;-67
2024/02/17 06:27:37;;;;;;;12.15;10.60;;;;;;;11.76;96.08;101283.28;10194983;28;20056;-62
2024/02/17 06:32:39;;;;;;;11.23;10.02;;;;;;;11.75;96.32;101289.56;10177541;28;20125;-62
2024/02/17 06:37:41;;;;;;;12.70;11.40;;;;;;;11.67;96.12;101308.75;10204042;28;20062;-62
2024/02/17 06:42:42;;;;;;;13.63;11.63;;;;;;;11.62;96.44;101329.53;10202130;28;20062;-62
2024/02/17 06:47:44;;;;;;;12.35;10.38;;;;;;;11.40;97.94;101279.50;10185139;28;20190;-62
2024/02/17 06:52:45;;;;;;;12.05;10.85;;;;;;;11.65;97.68;101322.19;10195755;28;20058;-62
2024/02/17 06:57:47;;;;;;;12.88;11.57;;;;;;;11.49;97.90;101305.53;10207904;28;20114;-62
2024/02/17 07:02:49;;;;;;;12.48;10.77;;;;;;;11.71;97.85;101346.72;10192514;28;20145;-62
2024/02/17 07:07:51;;;;;;;12.73;11.00;;;;;;;11.69;98.23;101354.84;10195681;28;20146;-62
2024/02/17 07:12:52;;;;;;;12.52;11.23;;;;;;;11.77;98.14;101357.84;10197817;28;20156;-62
2024/02/17 07:17:55;;;;;;;13.23;11.57;;;;;;;11.80;98.59;101367.44;10181095;28;20076;-62
2024/02/17 07:22:57;;;;;;;15.93;11.85;;;;;;;11.83;98.39;101368.09;10196595;28;20043;-62
2024/02/17 07:27:59;;;;;;;13.70;11.55;;;;;;;11.82;98.10;101371.72;10164959;28;20524;-62
2024/02/17 07:33:01;;;;;;;15.32;12.52;;;;;;;11.78;98.54;101380.03;10181031;28;20489;-64
2024/02/17 07:38:03;;;;;;;12.80;11.50;;;;;;;11.77;98.54;101394.31;10194589;28;20039;-61
2024/02/17 07:43:05;;;;;;;12.88;11.55;;;;;;;11.76;97.53;101408.66;10195980;28;20686;-63
2024/02/17 07:48:06;;;;;;;14.02;12.30;;;;;;;11.84;98.55;101412.50;10195748;28;20129;-62
2024/02/17 07:53:08;;;;;;;13.85;10.82;;;;;;;11.91;98.99;101422.75;10185701;28;20207;-62
2024/02/17 07:58:11;;;;;;;14.13;12.37;;;;;;;12.09;97.86;101434.88;10201154;28;20054;-66
2024/02/17 08:03:14;;;;;;;13.95;12.48;;;;;;;12.12;98.09;101447.16;10204621;28;20114;-62
2024/02/17 08:08:17;;;;;;;13.95;11.85;;;;;;;12.29;98.98;101452.19;10203162;28;20622;-62
2024/02/17 08:13:21;;;;;;;14.95;13.05;;;;;;;12.26;96.59;101460.41;10207916;28;20173;-62
2024/02/17 08:18:22;;;;;;;14.57;12.32;;;;;;;12.30;96.62;101466.41;10199136;28;20057;-62
2024/02/17 08:23:28;;;;;;;15.15;13.55;;;;;;;12.45;95.74;101472.53;10208568;28;20587;-62
2024/02/17 08:28:29;;;;;;;15.75;12.90;;;;;;;12.48;95.80;101473.16;10205751;28;20153;-62
2024/02/17 08:33:30;;;;;;;16.33;13.40;;;;;;;12.49;95.39;101477.53;10211248;28;20051;-63
2024/02/17 08:38:32;;;;;;;15.18;12.65;;;;;;;12.48;95.53;101472.31;10207811;28;20060;-62
2024/02/17 08:43:33;;;;;;;15.10;12.52;;;;;;;12.59;96.43;101469.72;10199569;28;20110;-62
2024/02/17 08:48:36;;;;;;;17.80;12.75;;;;;;;12.71;96.61;101482.22;10200057;28;20628;-63
2024/02/17 08:53:38;;;;;;;14.27;11.97;;;;;;;12.73;96.94;101468.78;10202318;28;20800;-63
2024/02/17 08:58:40;;;;;;;16.83;13.13;;;;;;;12.88;96.12;101488.19;10196782;28;20163;-61
2024/02/17 09:03:43;;;;;;;14.45;12.93;;;;;;;12.95;94.74;101502.84;10223631;28;20209;-61
2024/02/17 09:08:45;;;;;;;14.98;12.38;;;;;;;12.99;93.23;101508.84;10199180;28;20056;-62
2024/02/17 09:13:48;;;;;;;15.02;13.43;;;;;;;12.91;93.85;101514.72;10197024;28;20268;-62
2024/02/17 09:18:50;;;;;;;14.75;12.50;;;;;;;12.93;95.08;101528.81;10205436;28;20051;-62
2024/02/17 09:23:52;;;;;;;13.95;11.82;;;;;;;12.97;94.70;101532.13;10201809;28;20702;-62
2024/02/17 09:28:53;;;;;;;12.95;11.43;;;;;;;13.00;94.50;101546.16;10196478;28;20055;-61
2024/02/17 09:33:55;;;;;;;16.90;13.90;;;;;;;13.03;94.89;101540.59;10196068;28;20055;-62
2024/02/17 09:38:56;;;;;;;18.15;12.07;;;;;;;13.16;94.37;101550.41;10213868;28;20093;-61
2024/02/17 09:43:58;;;;;;;13.77;10.02;;;;;;;13.01;95.20;101555.84;10198578;28;20092;-62
2024/02/17 09:49:00;;;;;;;13.43;11.13;;;;;;;13.13;93.98;101548.78;10210936;28;20177;-62
2024/02/17 09:54:03;;;;;;;11.85;9.82;;;;;;;13.24;93.12;101546.22;10190552;28;20142;-63
2024/02/17 09:59:05;;;;;;;13.18;11.27;;;;;;;13.49;92.86;101567.72;10192525;28;20385;-63
2024/02/17 10:04:07;;;;;;;13.80;11.30;;;;;;;13.61;92.20;101577.53;10181117;28;20063;-66
2024/02/17 10:09:16;;;;;;;13.15;10.98;;;;;;;13.69;90.65;101575.16;10186635;28;20066;-62
2024/02/17 10:14:22;;;;;;;14.07;11.02;;;;;;;13.73;89.27;101592.69;10185128;28;20055;-63
2024/02/17 10:19:24;;;;;;;13.23;10.80;;;;;;;13.65;90.44;101589.72;10200853;28;20078;-61
2024/02/17 10:24:25;;;;;;;10.15;9.10;;;;;;;13.84;88.10;101607.09;10186931;28;20121;-61
2024/02/17 10:29:27;;;;;;;11.88;9.70;;;;;;;13.92;87.55;101599.38;10190968;28;20055;-62
2024/02/17 10:34:28;;;;;;;10.85;8.73;;;;;;;13.97;83.47;101598.06;10194224;28;20123;-62
2024/02/17 10:39:30;;;;;;;12.43;8.82;;;;;;;14.12;82.90;101611.28;10180064;28;20474;-61
2024/02/17 10:44:32;;;;;;;10.82;8.80;;;;;;;14.20;80.98;101624.13;10194371;28;20059;-62
2024/02/17 10:49:48;;;;;;;10.38;7.47;;;;;;;14.29;82.57;101631.47;10198953;28;20058;-64
2024/02/17 10:54:56;;;;;;;12.13;8.55;;;;;;;14.47;80.11;101637.25;10187366;28;20062;-62
2024/02/17 10:59:59;;;;;;;11.93;8.43;;;;;;;14.62;79.20;101638.84;10178299;28;20056;-61
2024/02/17 11:05:02;;;;;;;11.35;9.43;;;;;;;14.70;81.03;101634.69;10183189;28;20080;-63
2024/02/17 11:10:07;;;;;;;10.45;8.48;;;;;;;15.14;78.26;101638.47;10186953;28;20691;-62
2024/02/17 11:15:09;;;;;;;11.15;8.13;;;;;;;15.62;75.63;101635.56;10188299;28;20561;-63
2024/02/17 11:20:14;;;;;;;11.43;7.20;;;;;;;15.46;74.70;101641.31;10178063;28;20363;-62
2024/02/17 11:25:35;;;;;;;9.05;7.72;;;;;;;15.38;74.33;101641.06;10191498;28;20067;-62
2024/02/17 11:30:51;;;;;;;10.77;7.25;;;;;;;15.34;75.57;101637.78;10195209;28;20051;-63
2024/02/17 11:35:55;;;;;;;6.40;5.63;;;;;;;15.34;76.04;101637.78;10205877;28;20057;-63
2024/02/17 11:41:00;;;;;;;5.43;4.78;;;;;;;15.37;74.53;101650.06;10201771;28;20084;-63
2024/02/17 11:46:04;;;;;;;12.20;6.57;;;;;;;15.33;73.79;101635.22;10182751;28;20207;-64
2024/02/17 11:51:12;;;;;;;6.70;4.50;;;;;;;15.39;73.17;101626.69;10202845;28;21189;-62
2024/02/17 11:56:15;;;;;;;6.47;5.15;;;;;;;15.45;71.84;101620.81;10202444;28;20047;-63
2024/02/17 12:01:17;;;;;;;5.80;3.85;;;;;;;15.45;70.79;101625.34;10185221;28;20721;-62
2024/02/17 12:06:19;;;;;;;4.20;3.28;;;;;;;15.45;69.12;101622.66;10198714;28;20119;-63
2024/02/17 12:11:21;;;;;;;5.00;3.42;;;;;;;15.38;70.24;101627.66;10205099;28;20056;-62
2024/02/17 12:16:23;;;;;;;8.05;7.47;;;;;;;15.48;66.27;101625.94;10201502;28;20047;-64
2024/02/17 12:21:25;;;;;;;5.63;4.18;;;;;;;15.58;70.44;101625.22;10199146;28;20213;-62
2024/02/17 12:26:28;;;;;;;6.47;5.03;;;;;;;15.64;70.72;101630.09;10203794;28;20062;-62
2024/02/17 12:31:50;;;;;;;6.78;3.38;;;;;;;15.38;70.73;101614.22;10206180;28;20048;-62
2024/02/17 12:36:53;;;;;;;5.82;3.13;;;;;;;15.11;68.69;101634.19;10201178;28;20056;-63
2024/02/17 12:42:03;;;;;;;5.55;3.53;;;;;;;14.99;71.05;101636.00;10202457;28;20044;-62
2024/02/17 12:47:14;;;;;;;3.60;2.50;;;;;;;15.12;69.84;101645.81;10197847;28;20644;-62
2024/02/17 12:52:19;;;;;;;3.58;2.45;;;;;;;15.05;70.61;101648.09;10220929;28;20051;-62
2024/02/17 12:57:21;;;;;;;5.20;3.40;;;;;;;15.23;71.35;101642.28;10199861;28;20055;-62
2024/02/17 13:02:23;;;;;;;12.65;3.80;;;;;;;15.38;70.10;101643.75;10212671;28;20178;-66
2024/02/17 13:07:24;;;;;;;7.53;2.70;;;;;;;15.47;69.42;101648.38;10186795;28;20143;-63
2024/02/17 13:12:27;;;;;;;17.95;16.15;;;;;;;15.46;68.35;101640.44;10200175;28;20564;-64
2024/02/17 13:17:29;;;;;;;7.15;4.28;;;;;;;15.55;71.03;101637.91;10205450;28;20794;-64
2024/02/17 13:22:30;;;;;;;3.13;2.83;;;;;;;15.60;69.70;101644.72;10193780;28;20059;-66
2024/02/17 13:27:38;;;;;;;3.15;2.20;;;;;;;15.42;68.75;101629.13;10201878;28;20047;-66
2024/02/17 13:32:43;;;;;;;4.47;2.00;;;;;;;15.36;66.56;101637.66;10190883;28;20095;-65
2024/02/17 13:37:45;;;;;;;4.18;1.83;;;;;;;15.40;66.12;101652.53;10205913;28;20046;-65
2024/02/17 13:42:46;;;;;;;3.20;1.90;;;;;;;15.35;64.83;101662.78;10166948;28;20138;-62
2024/02/17 13:47:48;;;;;;;4.88;2.50;;;;;;;15.24;65.86;101662.75;10190671;28;20081;-63
2024/02/17 13:52:49;;;;;;;3.58;3.28;;;;;;;15.19;67.12;101666.66;10173846;28;20059;-64
2024/02/17 13:57:51;;;;;;;6.88;4.38;;;;;;;15.11;66.59;101674.44;10172920;28;20051;-61
2024/02/17 14:02:53;;;;;;;5.32;4.78;;;;;;;15.17;68.56;101678.47;10211825;28;20062;-61
2024/02/17 14:07:56;;;;;;;7.00;4.20;;;;;;;15.20;67.28;101676.41;10204891;28;20090;-62
2024/02/17 14:12:58;;;;;;;4.05;3.53;;;;;;;15.19;67.40;101680.06;10202388;28;20099;-61
2024/02/17 14:18:01;;;;;;;4.78;3.35;;;;;;;15.16;68.76;101684.78;10197748;28;20062;-62
2024/02/17 14:23:03;;;;;;;5.95;3.83;;;;;;;15.10;68.43;101696.88;10207590;28;20050;-64
2024/02/17 14:28:05;;;;;;;5.32;3.83;;;;;;;15.04;68.09;101697.31;10170166;28;20054;-65
2024/02/17 14:33:08;;;;;;;6.38;3.92;;;;;;;14.90;67.83;101701.06;10208638;28;20054;-66
2024/02/17 14:38:10;;;;;;;5.70;4.22;;;;;;;14.93;69.45;101699.97;10201444;28;20122;-63
2024/02/17 14:43:12;;;;;;;4.30;3.42;;;;;;;14.95;68.67;101703.38;10200719;28;20241;-64
2024/02/17 14:48:13;;;;;;;3.15;1.80;;;;;;;14.89;68.76;101706.53;10192908;28;20055;-64
2024/02/17 14:53:15;;;;;;;4.32;1.77;;;;;;;14.96;67.22;101697.91;10200848;28;20671;-64
2024/02/17 14:58:17;;;;;;;5.38;3.72;;;;;;;15.00;67.69;101706.59;10200996;28;20059;-65
2024/02/17 15:03:20;;;;;;;7.35;4.07;;;;;;;14.95;68.31;101677.44;10194604;28;20081;-65
2024/02/17 15:08:22;;;;;;;4.93;2.60;;;;;;;15.13;70.33;101699.31;10200535;28;20043;-64
2024/02/17 15:13:24;;;;;;;3.00;2.63;;;;;;;15.13;69.66;101702.00;10202082;28;20496;-65
2024/02/17 15:18:27;;;;;;;3.97;2.78;;;;;;;15.15;70.30;101716.13;10208447;28;20123;-67
2024/02/17 15:23:37;;;;;;;4.45;2.40;;;;;;;15.16;70.17;101719.66;10192293;28;20137;-63
2024/02/17 15:28:40;;;;;;;5.65;3.05;;;;;;;15.10;69.80;101729.06;10205190;28;20090;-67
2024/02/17 15:33:42;;;;;;;5.10;3.67;;;;;;;14.87;71.53;101727.25;10233633;28;20081;-65
2024/02/17 15:38:45;;;;;;;3.50;3.15;;;;;;;14.77;70.24;101744.03;10208073;28;20051;-64
2024/02/17 15:43:46;;;;;;;5.63;3.10;;;;;;;14.82;71.41;101736.50;10194782;28;20062;-67
2024/02/17 15:48:49;;;;;;;3.28;2.15;;;;;;;14.78;71.03;101728.81;10215563;28;20128;-64
2024/02/17 15:53:51;;;;;;;4.47;3.25;;;;;;;14.70;71.70;101717.78;10220481;28;20059;-65
2024/02/17 15:58:52;;;;;;;3.70;2.80;;;;;;;14.51;72.26;101732.53;10180970;28;20472;-64
2024/02/17 16:03:56;;;;;;;3.50;2.42;;;;;;;14.45;72.77;101732.97;10208860;28;20051;-64
2024/02/17 16:09:01;;;;;;;3.55;2.38;;;;;;;14.54;71.93;101739.50;10180452;28;20055;-67
2024/02/17 16:14:02;;;;;;;3.25;2.33;;;;;;;14.55;72.23;101742.06;10179022;28;20719;-65
2024/02/17 16:19:06;;;;;;;3.28;2.45;;;;;;;14.40;72.42;101748.53;10202247;28;20102;-65
2024/02/17 16:24:08;;;;;;;3.05;2.00;;;;;;;14.45;72.36;101743.69;10199998;28;20089;-67
2024/02/17 16:29:10;;;;;;;3.08;2.50;;;;;;;14.33;72.49;101745.44;10215009;28;20074;-66
2024/02/17 16:34:11;;;;;;;3.33;2.70;;;;;;;14.35;73.38;101743.50;10190553;28;20059;-65
2024/02/17 16:39:13;;;;;;;4.57;3.40;;;;;;;14.40;74.17;101751.22;10210607;28;20055;-67
2024/02/17 16:44:14;;;;;;;2.55;2.17;;;;;;;14.49;74.29;101762.09;10188261;28;20055;-64
2024/02/17 16:49:16;;;;;;;4.25;2.45;;;;;;;14.38;73.33;101755.81;10189447;28;20107;-65
2024/02/17 16:54:18;;;;;;;3.13;2.30;;;;;;;14.46;74.16;101765.00;10208583;28;20058;-65
2024/02/17 16:59:20;;;;;;;8.10;3.75;;;;;;;14.45;74.10;101784.72;10203729;28;20481;-66
2024/02/17 17:04:23;;;;;;;6.88;5.97;;;;;;;14.39;74.29;101790.53;10222083;28;20090;-63
2024/02/17 17:09:25;;;;;;;6.45;5.43;;;;;;;14.36;73.87;101792.59;10185355;28;24728;-66
2024/02/17 17:14:27;;;;;;;7.20;6.05;;;;;;;14.30;74.36;101793.88;10190222;28;20121;-64
2024/02/17 17:19:28;;;;;;;7.57;6.50;;;;;;;14.32;73.92;101810.69;10196378;28;20047;-65
2024/02/17 17:24:31;;;;;;;7.75;7.05;;;;;;;14.25;74.26;101812.13;10195651;28;20051;-67
2024/02/17 17:29:34;;;;;;;9.10;6.85;;;;;;;14.27;75.46;101826.25;10211579;28;20534;-67
2024/02/17 17:34:36;;;;;;;6.80;6.13;;;;;;;14.25;75.66;101809.44;10209583;28;20145;-67
2024/02/17 17:39:37;;;;;;;8.55;6.53;;;;;;;14.27;75.68;101826.25;10200016;28;20062;-67
2024/02/17 17:44:39;;;;;;;7.32;5.95;;;;;;;14.27;75.54;101832.44;10202212;28;20779;-65
2024/02/17 17:49:40;;;;;;;6.07;5.30;;;;;;;14.26;75.69;101830.75;10200219;28;20202;-65
2024/02/17 17:54:42;;;;;;;8.73;6.50;;;;;;;14.21;75.79;101842.75;10202767;28;20060;-66
2024/02/17 17:59:44;;;;;;;9.93;6.85;;;;;;;14.20;76.26;101851.75;10193859;28;20066;-66
2024/02/17 18:04:46;;;;;;;10.57;8.40;;;;;;;14.20;76.73;101841.91;10200035;28;20062;-65
2024/02/17 18:09:48;;;;;;;10.80;8.20;;;;;;;14.15;76.86;101827.97;10187162;28;20921;-67
2024/02/17 18:14:49;;;;;;;11.15;10.05;;;;;;;14.12;77.13;101829.03;10195086;28;20127;-64
2024/02/17 18:19:52;;;;;;;10.88;9.75;;;;;;;14.12;76.89;101837.06;10206373;28;20514;-65
2024/02/17 18:24:54;;;;;;;11.18;9.27;;;;;;;14.12;77.19;101845.09;10198409;28;20050;-65
2024/02/17 18:29:56;;;;;;;9.77;8.77;;;;;;;14.10;77.95;101852.38;10196498;28;20073;-65
2024/02/17 18:34:57;;;;;;;10.60;9.52;;;;;;;14.11;77.72;101858.59;10192596;28;20073;-64
2024/02/17 18:39:59;;;;;;;10.75;9.15;;;;;;;14.09;77.87;101858.69;10195374;28;20062;-65
2024/02/17 18:45:02;;;;;;;11.43;10.35;;;;;;;14.08;77.77;101858.81;10199599;28;20195;-64
2024/02/17 18:50:05;;;;;;;10.13;9.15;;;;;;;14.01;78.04;101842.34;10201610;28;20055;-65
2024/02/17 18:55:07;;;;;;;9.68;8.73;;;;;;;14.06;78.43;101861.59;10197478;28;20571;-64
2024/02/17 19:00:09;;;;;;;9.93;8.88;;;;;;;14.04;78.52;101855.50;10184853;28;22560;-65
2024/02/17 19:05:11;;;;;;;11.57;9.00;;;;;;;13.98;78.58;101855.94;10196104;28;20055;-64
2024/02/17 19:10:13;;;;;;;10.00;8.98;;;;;;;14.01;79.65;101852.19;10196274;28;20164;-65
2024/02/17 19:15:15;;;;;;;9.85;8.40;;;;;;;14.05;78.96;101869.72;10189974;28;20694;-66
2024/02/17 19:20:19;;;;;;;11.98;9.30;;;;;;;14.01;78.10;101862.91;10175561;28;20066;-65
2024/02/17 19:25:22;;;;;;;10.43;8.65;;;;;;;14.02;80.03;101862.78;10188102;28;20681;-64
2024/02/17 19:30:24;;;;;;;10.27;9.32;;;;;;;13.96;78.47;101869.44;10195867;28;20048;-63
2024/02/17 19:35:25;;;;;;;12.68;10.27;;;;;;;13.74;78.48;101839.75;10192831;28;20545;-66
2024/02/17 19:40:27;;;;;;;11.20;9.52;;;;;;;13.75;78.57;101852.16;10194986;28;20055;-64
2024/02/17 19:45:28;;;;;;;12.15;9.73;;;;;;;13.82;78.64;101855.28;10200588;28;20061;-65
2024/02/17 19:50:30;;;;;;;10.45;9.43;;;;;;;13.71;78.46;101848.00;10182200;28;20051;-66
2024/02/17 19:55:31;;;;;;;10.45;9.43;;;;;;;13.57;78.21;101830.19;10198206;28;20055;-66
2024/02/17 20:00:33;;;;;;;11.15;9.32;;;;;;;13.79;79.07;101865.22;10205694;28;20051;-65
2024/02/17 20:05:35;;;;;;;13.23;9.68;;;;;;;13.74;79.47;101851.31;10211442;28;20093;-64
2024/02/17 20:10:37;;;;;;;10.82;9.75;;;;;;;13.78;79.23;101874.22;10201224;28;20050;-66
2024/02/17 20:15:40;;;;;;;11.07;9.93;;;;;;;13.80;79.21;101871.44;10174137;28;20517;-64
2024/02/17 20:20:42;;;;;;;12.77;11.47;;;;;;;13.75;79.99;101866.41;10200415;28;20184;-67
2024/02/17 20:25:44;;;;;;;15.57;12.23;;;;;;;13.71;79.85;101872.94;10199175;28;20169;-64
2024/02/17 20:30:49;;;;;;;13.25;10.55;;;;;;;13.71;80.92;101869.41;10206684;28;20070;-66
2024/02/17 20:35:51;;;;;;;13.03;11.17;;;;;;;13.72;80.54;101877.31;10206512;28;20081;-65
2024/02/17 20:40:53;;;;;;;11.88;10.60;;;;;;;13.76;80.80;101881.47;10186723;28;20195;-65
2024/02/17 20:45:56;;;;;;;12.52;11.27;;;;;;;13.68;80.72;101878.50;10203562;28;20683;-65
2024/02/17 20:50:58;;;;;;;13.63;11.10;;;;;;;13.63;81.47;101888.66;10200280;28;20230;-65
2024/02/17 20:56:00;;;;;;;11.73;9.82;;;;;;;13.60;81.80;101888.84;10204628;28;20066;-65
2024/02/17 21:01:02;;;;;;;12.85;10.43;;;;;;;13.59;81.93;101892.50;10193472;28;20583;-67
2024/02/17 21:06:04;;;;;;;13.43;11.40;;;;;;;13.66;81.54;101891.13;10207538;28;21007;-69
2024/02/17 21:11:07;;;;;;;11.43;10.23;;;;;;;13.53;80.22;101868.81;10203322;28;20050;-68
2024/02/17 21:16:09;;;;;;;12.10;10.90;;;;;;;13.61;79.64;101890.56;10197585;28;20062;-65
2024/02/17 21:21:10;;;;;;;12.10;10.15;;;;;;;13.65;80.72;101888.56;10198986;28;20215;-63
2024/02/17 21:26:12;;;;;;;12.48;11.05;;;;;;;13.48;79.62;101870.94;10203138;28;20052;-65
2024/02/17 21:31:14;;;;;;;14.68;11.82;;;;;;;13.42;80.46;101875.75;10199291;28;20055;-63
2024/02/17 21:36:16;;;;;;;11.32;9.77;;;;;;;13.42;81.60;101881.09;10191141;28;20092;-67
2024/02/17 21:41:19;;;;;;;14.15;11.23;;;;;;;13.34;82.11;101864.69;10200265;28;20056;-66
2024/02/17 21:46:20;;;;;;;13.98;10.90;;;;;;;13.31;83.83;101870.22;10198093;28;20051;-65
2024/02/17 21:51:22;;;;;;;11.63;10.52;;;;;;;13.34;84.30;101871.88;10204547;28;20066;-65
2024/02/17 21:56:24;;;;;;;12.52;10.18;;;;;;;13.24;84.78;101875.13;10188761;28;20462;-64
2024/02/17 22:01:25;;;;;;;10.35;9.35;;;;;;;13.39;85.18;101883.09;10200433;28;20272;-63
2024/02/17 22:06:30;;;;;;;10.82;9.73;;;;;;;13.42;84.93;101881.09;10188950;28;20797;-66
2024/02/17 22:11:31;;;;;;;;;;;;;;;13.46;85.37;101881.75;10215035;28;20070;-67
2024/02/17 22:16:34;;;;;;;12.60;10.35;;;;;;;13.45;84.43;101890.75;10195444;28;20375;-66
2024/02/17 22:21:38;;;;;;;11.32;10.13;;;;;;;13.43;83.66;101892.66;10183508;28;20150;-65
2024/02/17 22:26:40;;;;;;;11.20;10.07;;;;;;;13.41;83.51;101887.41;10199427;28;20046;-65
2024/02/17 22:31:41;;;;;;;12.52;10.52;;;;;;;13.39;83.30;101883.97;10190440;28;20678;-64
2024/02/17 22:36:43;;;;;;;13.32;11.23;;;;;;;13.34;82.07;101891.44;10187317;28;20048;-64
2024/02/17 22:41:44;;;;;;;12.50;11.23;;;;;;;13.36;81.97;101883.31;10203386;28;20201;-66
2024/02/17 22:46:45;;;;;;;13.07;11.77;;;;;;;13.30;80.87;101889.91;10205716;28;20050;-68
2024/02/17 22:51:47;;;;;;;14.77;11.27;;;;;;;13.27;80.91;101901.66;10209035;28;20505;-65
2024/02/17 22:56:49;;;;;;;13.65;10.13;;;;;;;13.05;81.18;101848.72;10197170;28;20054;-66